aviador You're here:

KCIU Decoded Metar

CHIPPEWA INTL in MI, USA
Report Time2018-07-23 11:22:00
UTC Time2018-07-23 11:42:23
Flight Rules lifr LIFR
Wind070° at 08 kt
W.Decomp.*RWY 09: 7.8 kt HW 1.9 kt LCW
RWY 16: 0.8 kt HW 8 kt LCW
W.Rank070° ranks 30
Current wind is above 070° avg. (6.7)
Visibility9999 m
Phenomena:N/A
Clouds:Broken 004 Hf
Overcast 008 Hf
Expected CloudBase > 400 ft AGL from Temp-Dew spread
Ceiling400 ft
Temp19°C (ISA +6)
Dew Point18°C (94% RH)
AAT18.9°C
QNH1015 hPa
Density Alt1,667 ft
Elevation801 ft
Report Wrong Elevation
Raw Report
KCIU 231122Z AUTO 07008KT 10SM BKN004 OVC008 19/18 A2996 RMK AO2
PNO $=

Extra information for KCIU:More info

Metar Taf Metar & Taf Last 4 Metars F.Rules Stats Wind Profile Meteogram Temp Stats Airport Information Weather charts Add Link Nearby VenuesMetar ALERT Operation Metar Decoded Social comments

AIRNAV info for KCIU